createdAt,value
2022-11-23T00:01:21.537Z,7.80
2022-11-23T00:03:50.643Z,4.75
2022-11-23T00:06:17.859Z,6.60
2022-11-23T00:08:44.908Z,5.63
2022-11-23T00:11:12.328Z,5.05
2022-11-23T00:13:40.649Z,5.95
2022-11-23T00:19:01.134Z,3.78
2022-11-23T00:21:30.273Z,3.30
2022-11-23T00:23:56.844Z,7.28
2022-11-23T00:26:23.413Z,4.32
2022-11-23T00:28:50.025Z,5.32
2022-11-23T00:31:18.850Z,6.53
2022-11-23T00:33:56.197Z,4.20
2022-11-23T00:36:24.606Z,3.95
2022-11-23T00:38:54.270Z,4.43
2022-11-23T00:41:23.288Z,3.50
2022-11-23T00:43:50.086Z,3.95
2022-11-23T00:46:17.769Z,4.72
2022-11-23T00:48:46.586Z,3.75
2022-11-23T00:51:16.101Z,3.30
2022-11-23T00:53:43.414Z,5.07
2022-11-23T00:56:10.655Z,5.57
2022-11-23T00:58:38.846Z,3.25
2022-11-23T01:01:09.446Z,7.07
2022-11-23T01:03:39.062Z,3.22
2022-11-23T01:06:13.911Z,3.60
2022-11-23T01:08:40.954Z,1.80
2022-11-23T01:11:10.067Z,2.80
2022-11-23T01:13:38.470Z,2.53
2022-11-23T01:16:07.675Z,1.77
2022-11-23T01:18:34.517Z,2.30
2022-11-23T01:21:02.076Z,2.45
2022-11-23T01:23:30.335Z,3.92
2022-11-23T01:25:57.362Z,2.03
2022-11-23T01:28:24.441Z,5.32
2022-11-23T01:30:50.938Z,3.17
2022-11-23T01:33:17.399Z,4.00
2022-11-23T01:35:43.883Z,4.57
2022-11-23T01:38:15.142Z,3.58
2022-11-23T01:40:44.605Z,2.10
2022-11-23T01:43:15.824Z,3.17
2022-11-23T01:45:53.496Z,3.10
2022-11-23T01:48:25.188Z,3.20
2022-11-23T01:50:53.170Z,5.85
2022-11-23T01:53:20.997Z,3.90
2022-11-23T01:55:48.999Z,1.80
2022-11-23T01:58:20.897Z,3.25
2022-11-23T02:00:47.779Z,3.75
2022-11-23T02:03:14.295Z,1.20
2022-11-23T02:05:45.187Z,1.23
2022-11-23T02:08:13.488Z,2.08
2022-11-23T02:10:39.955Z,1.65
2022-11-23T02:13:10.112Z,4.35
2022-11-23T02:15:37.849Z,4.78
2022-11-23T02:18:19.478Z,3.25
2022-11-23T02:20:46.399Z,2.85
2022-11-23T02:23:18.591Z,1.90
2022-11-23T02:25:45.205Z,3.00
2022-11-23T02:28:19.596Z,2.63
2022-11-23T02:33:33.682Z,3.65
2022-11-23T02:36:01.380Z,2.92
2022-11-23T02:38:33.012Z,2.83
2022-11-23T02:40:59.636Z,3.88
2022-11-23T02:43:26.513Z,2.97
2022-11-23T02:45:54.771Z,3.88
2022-11-23T02:48:21.676Z,3.38
2022-11-23T02:50:48.173Z,5.15
2022-11-23T02:53:15.264Z,8.00
2022-11-23T02:55:41.786Z,4.47
2022-11-23T02:58:08.377Z,5.97
2022-11-23T03:00:35.832Z,4.25
2022-11-23T03:03:03.112Z,5.40
2022-11-23T03:05:29.822Z,2.58
2022-11-23T03:07:56.796Z,7.32
2022-11-23T03:10:23.308Z,4.65
2022-11-23T03:12:49.863Z,2.08
2022-11-23T03:15:16.395Z,3.47
2022-11-23T03:17:42.844Z,3.88
2022-11-23T03:20:10.614Z,1.58
2022-11-23T03:22:37.282Z,2.95
2022-11-23T03:25:04.114Z,2.72
2022-11-23T03:27:33.569Z,2.55
2022-11-23T03:30:00.222Z,2.20
2022-11-23T03:32:26.783Z,4.55
2022-11-23T03:34:53.256Z,1.65
2022-11-23T03:37:19.781Z,2.83
2022-11-23T03:39:47.744Z,3.47
2022-11-23T03:42:14.405Z,3.15
2022-11-23T03:44:41.024Z,4.45
2022-11-23T03:47:07.554Z,4.93
2022-11-23T03:49:34.234Z,3.47
2022-11-23T03:52:00.961Z,3.25
2022-11-23T03:54:27.571Z,2.33
2022-11-23T03:56:54.090Z,2.53
2022-11-23T03:59:20.584Z,1.80
2022-11-23T04:01:47.048Z,1.42
2022-11-23T04:04:13.667Z,2.38
2022-11-23T04:06:40.139Z,3.25
2022-11-23T04:09:06.746Z,3.40
2022-11-23T04:11:33.202Z,1.40
2022-11-23T04:13:59.684Z,1.77
2022-11-23T04:16:26.210Z,6.10
2022-11-23T04:18:52.699Z,2.17
2022-11-23T04:21:20.424Z,3.58
2022-11-23T04:23:47.019Z,2.28
2022-11-23T04:26:13.701Z,2.83
2022-11-23T04:28:40.211Z,3.53
2022-11-23T04:31:06.785Z,3.70
2022-11-23T04:33:33.317Z,3.00
2022-11-23T04:36:00.023Z,1.42
2022-11-23T04:38:26.558Z,3.10
2022-11-23T04:40:53.207Z,2.38
2022-11-23T04:43:19.813Z,4.00
2022-11-23T04:45:46.508Z,1.40
2022-11-23T04:48:13.017Z,2.05
2022-11-23T04:50:42.422Z,2.53
2022-11-23T04:53:10.341Z,1.30
2022-11-23T04:55:37.288Z,1.75
2022-11-23T04:58:03.790Z,1.52
2022-11-23T05:00:30.926Z,1.92
2022-11-23T05:03:01.172Z,3.10
2022-11-23T05:05:28.274Z,1.83
2022-11-23T05:07:55.304Z,1.25
2022-11-23T05:10:21.818Z,2.78
2022-11-23T05:12:48.369Z,1.70
2022-11-23T05:15:15.117Z,1.05
2022-11-23T05:17:42.632Z,2.95
2022-11-23T05:20:10.044Z,2.58
2022-11-23T05:22:36.776Z,1.83
2022-11-23T05:25:03.472Z,2.70
2022-11-23T05:27:29.937Z,7.22
2022-11-23T05:29:56.513Z,1.27
2022-11-23T05:32:22.994Z,2.88
2022-11-23T05:34:50.017Z,2.05
2022-11-23T05:37:16.834Z,3.05
2022-11-23T05:39:43.385Z,1.05
2022-11-23T05:42:09.914Z,1.65
2022-11-23T05:44:36.637Z,1.38
2022-11-23T05:47:03.224Z,7.80
2022-11-23T05:49:30.009Z,3.70
2022-11-23T05:51:57.197Z,1.77
2022-11-23T05:54:23.672Z,3.72
2022-11-23T05:56:50.230Z,2.22
2022-11-23T05:59:16.770Z,2.55
2022-11-23T06:01:43.294Z,2.75
2022-11-23T06:04:09.959Z,2.08
2022-11-23T06:06:36.510Z,2.10
2022-11-23T06:09:03.204Z,1.27
2022-11-23T06:11:31.261Z,3.60
2022-11-23T06:13:58.012Z,2.15
2022-11-23T06:16:24.613Z,2.28
2022-11-23T06:18:51.151Z,3.10
2022-11-23T06:21:17.666Z,5.00
2022-11-23T06:23:46.386Z,4.00
2022-11-23T06:26:12.906Z,3.08
2022-11-23T06:28:39.679Z,3.55
2022-11-23T06:31:06.969Z,4.18
2022-11-23T06:33:34.398Z,2.03
2022-11-23T06:36:02.892Z,4.70
2022-11-23T06:38:29.722Z,2.67
2022-11-23T06:41:00.130Z,3.97
2022-11-23T06:43:27.742Z,2.92
2022-11-23T06:45:58.007Z,3.22
2022-11-23T06:48:24.629Z,3.50
2022-11-23T06:50:51.689Z,3.53
2022-11-23T06:53:18.449Z,3.60
2022-11-23T06:55:44.953Z,3.97
2022-11-23T06:58:11.613Z,4.28
2022-11-23T07:00:38.121Z,6.55
2022-11-23T07:03:04.708Z,2.92
2022-11-23T07:05:31.367Z,5.07
2022-11-23T07:07:57.825Z,3.00
2022-11-23T07:10:25.794Z,3.00
2022-11-23T07:12:52.996Z,5.18
2022-11-23T07:15:19.521Z,4.55
2022-11-23T07:17:46.223Z,4.38
2022-11-23T07:20:13.397Z,4.13
2022-11-23T07:22:40.166Z,5.07
2022-11-23T07:25:06.990Z,3.63
2022-11-23T07:27:33.504Z,5.05
2022-11-23T07:30:00.032Z,2.92
2022-11-23T07:32:26.520Z,5.32
2022-11-23T07:34:53.191Z,4.10
2022-11-23T07:37:19.758Z,2.38
2022-11-23T07:39:57.348Z,3.97
2022-11-23T07:42:35.699Z,4.18
2022-11-23T07:45:07.425Z,7.18
2022-11-23T07:47:33.962Z,5.20
2022-11-23T07:50:00.503Z,1.00
2022-11-23T07:52:27.177Z,1.83
2022-11-23T07:54:53.774Z,2.20
2022-11-23T07:57:20.426Z,4.53
2022-11-23T07:59:46.926Z,1.65
2022-11-23T08:02:15.429Z,3.60
2022-11-23T08:04:41.983Z,6.82
2022-11-23T08:07:08.580Z,2.35
2022-11-23T08:09:35.170Z,1.80
2022-11-23T08:12:01.778Z,2.75
2022-11-23T08:14:28.381Z,2.75
2022-11-23T08:16:55.065Z,1.60
2022-11-23T08:19:21.611Z,3.65
2022-11-23T08:21:48.180Z,2.90
2022-11-23T08:24:14.716Z,2.55
2022-11-23T08:26:41.241Z,2.05
2022-11-23T08:29:07.875Z,4.20
2022-11-23T08:31:34.455Z,2.20
2022-11-23T08:34:03.603Z,1.88
2022-11-23T08:36:30.328Z,1.70
2022-11-23T08:38:57.402Z,6.85
2022-11-23T08:41:23.983Z,2.72
2022-11-23T08:43:51.381Z,4.10
2022-11-23T08:46:17.993Z,1.80
2022-11-23T08:48:44.476Z,1.60
2022-11-23T08:51:11.304Z,2.78
2022-11-23T08:53:38.076Z,2.47
2022-11-23T08:56:06.328Z,2.08
2022-11-23T08:58:33.258Z,4.40
2022-11-23T09:00:59.819Z,7.20
2022-11-23T09:03:26.357Z,6.03
2022-11-23T09:05:54.626Z,4.53
2022-11-23T09:08:21.287Z,3.97
2022-11-23T09:10:47.969Z,1.88
2022-11-23T09:13:14.541Z,2.45
2022-11-23T09:15:41.154Z,1.40
2022-11-23T09:18:07.744Z,1.50
2022-11-23T09:20:34.882Z,3.95
2022-11-23T09:23:01.364Z,2.13
2022-11-23T09:25:28.180Z,5.32
2022-11-23T09:28:02.228Z,2.03
2022-11-23T09:30:29.020Z,3.75
2022-11-23T09:32:57.826Z,4.22
2022-11-23T09:35:25.311Z,7.05
2022-11-23T09:37:58.677Z,6.68
2022-11-23T09:40:31.142Z,5.78
2022-11-23T09:43:44.089Z,1.83
2022-11-23T09:46:54.905Z,3.15
2022-11-23T09:49:26.186Z,5.32
2022-11-23T09:51:55.620Z,4.70
2022-11-23T09:54:22.752Z,4.75
2022-11-23T09:56:58.498Z,6.85
2022-11-23T09:59:31.830Z,5.07
2022-11-23T10:01:59.664Z,6.25
2022-11-23T10:04:29.328Z,2.60
2022-11-23T10:07:03.916Z,3.13
2022-11-23T10:10:06.032Z,3.28
2022-11-23T10:12:50.620Z,4.00
2022-11-23T10:15:28.105Z,3.35
2022-11-23T10:18:29.894Z,5.28
2022-11-23T10:21:22.923Z,4.32
2022-11-23T10:23:54.645Z,9.48
2022-11-23T10:26:32.721Z,4.75
2022-11-23T10:29:10.140Z,2.40
2022-11-23T10:31:37.243Z,3.58
2022-11-23T10:34:16.173Z,1.20
2022-11-23T10:36:42.903Z,3.33
2022-11-23T10:39:38.695Z,7.22
2022-11-23T10:42:33.868Z,6.78
2022-11-23T10:47:39.327Z,6.55
2022-11-23T10:50:27.212Z,6.20
2022-11-23T10:53:12.584Z,6.18
2022-11-23T10:56:08.670Z,7.85
2022-11-23T10:58:44.749Z,12.40
2022-11-23T11:01:23.289Z,9.73
2022-11-23T11:03:51.814Z,21.27
2022-11-23T11:06:28.801Z,13.23
2022-11-23T11:09:00.441Z,5.28
2022-11-23T11:11:39.929Z,16.30
2022-11-23T11:14:18.553Z,11.70
2022-11-23T11:16:49.500Z,12.13
2022-11-23T11:19:36.554Z,13.57
2022-11-23T11:22:27.197Z,23.23
2022-11-23T11:24:54.791Z,17.88
2022-11-23T11:27:23.750Z,16.90
2022-11-23T11:30:06.857Z,18.92
2022-11-23T11:32:54.399Z,21.25
2022-11-23T11:35:28.962Z,16.20
2022-11-23T11:38:11.288Z,14.18
2022-11-23T11:40:49.604Z,17.90
2022-11-23T11:43:39.216Z,17.80
2022-11-23T11:46:28.980Z,11.68
2022-11-23T11:49:21.878Z,19.77
2022-11-23T11:52:30.000Z,18.45
2022-11-23T11:55:01.852Z,10.32
2022-11-23T11:57:35.266Z,14.40
2022-11-23T12:00:05.384Z,15.85
2022-11-23T12:02:39.963Z,11.98
2022-11-23T12:05:31.266Z,19.40
2022-11-23T12:08:21.522Z,16.45
2022-11-23T12:10:47.985Z,11.50
2022-11-23T12:13:30.443Z,15.73
2022-11-23T12:16:24.151Z,17.27
2022-11-23T12:19:05.869Z,18.17
2022-11-23T12:21:55.868Z,14.85
2022-11-23T12:24:41.609Z,19.27
2022-11-23T12:27:16.951Z,20.13
2022-11-23T12:30:17.645Z,23.85
2022-11-23T12:33:02.620Z,21.58
2022-11-23T12:35:53.301Z,20.55
2022-11-23T12:38:20.007Z,21.25
2022-11-23T12:40:59.905Z,20.67
2022-11-23T12:43:49.353Z,21.42
2022-11-23T12:46:22.098Z,24.65
2022-11-23T12:49:14.104Z,18.80
2022-11-23T12:52:09.636Z,26.33
2022-11-23T12:54:53.185Z,13.55
2022-11-23T12:57:30.232Z,17.23
2022-11-23T13:00:03.486Z,22.90
2022-11-23T13:02:57.384Z,14.00
2022-11-23T13:06:01.494Z,19.63
2022-11-23T13:08:52.969Z,19.55
2022-11-23T13:11:31.612Z,23.55
2022-11-23T13:14:03.946Z,22.50
2022-11-23T13:17:04.318Z,24.48
2022-11-23T13:19:42.243Z,25.67
2022-11-23T13:22:17.644Z,20.48
2022-11-23T13:25:13.755Z,16.08
2022-11-23T13:27:49.484Z,18.52
2022-11-23T13:30:40.384Z,19.35
2022-11-23T13:33:21.071Z,19.83
2022-11-23T13:36:03.580Z,14.85
2022-11-23T13:38:39.406Z,20.98
2022-11-23T13:41:35.194Z,23.38
2022-11-23T13:44:26.733Z,18.85
2022-11-23T13:46:59.533Z,13.30
2022-11-23T13:49:29.914Z,22.27
2022-11-23T13:52:30.282Z,24.42
2022-11-23T13:54:56.848Z,20.40
2022-11-23T13:57:24.222Z,26.77
2022-11-23T13:59:51.040Z,20.42
2022-11-23T14:02:17.860Z,27.00
2022-11-23T14:04:49.554Z,26.90
2022-11-23T14:07:17.861Z,20.65
2022-11-23T14:09:51.688Z,20.83
2022-11-23T14:12:21.256Z,20.30
2022-11-23T14:14:55.147Z,23.20
2022-11-23T14:17:27.426Z,19.17
2022-11-23T14:19:59.656Z,18.17
2022-11-23T14:22:39.411Z,21.30
2022-11-23T14:25:37.629Z,28.30
2022-11-23T14:28:52.844Z,11.43
2022-11-23T14:31:37.319Z,20.67
2022-11-23T14:34:19.163Z,15.95
2022-11-23T14:37:11.021Z,17.10
2022-11-23T14:40:01.893Z,16.50
2022-11-23T14:42:30.953Z,22.88
2022-11-23T14:45:04.859Z,20.88
2022-11-23T14:47:32.415Z,13.77
2022-11-23T14:49:59.143Z,25.45
2022-11-23T14:52:32.217Z,17.00
2022-11-23T14:55:02.036Z,25.15
2022-11-23T14:57:44.384Z,15.88
2022-11-23T15:00:30.028Z,20.30
2022-11-23T15:03:27.184Z,21.38
2022-11-23T15:05:56.381Z,16.08
2022-11-23T15:08:44.887Z,18.10
2022-11-23T15:11:23.897Z,18.50
2022-11-23T15:13:52.941Z,24.17
2022-11-23T15:16:21.462Z,20.67
2022-11-23T15:18:48.810Z,23.55
2022-11-23T15:21:27.248Z,20.40
2022-11-23T15:23:57.441Z,17.67
2022-11-23T15:26:47.315Z,22.70
2022-11-23T15:29:33.793Z,15.18
2022-11-23T15:34:49.415Z,24.00
2022-11-23T15:37:17.709Z,36.85
2022-11-23T15:39:45.869Z,22.00
2022-11-23T15:42:20.114Z,24.75
2022-11-23T15:44:50.944Z,16.63
2022-11-23T15:47:27.391Z,31.65
2022-11-23T15:50:01.396Z,21.08
2022-11-23T15:52:33.745Z,21.85
2022-11-23T15:55:09.671Z,21.90
2022-11-23T15:57:37.927Z,19.77
2022-11-23T16:00:06.679Z,24.23
2022-11-23T16:02:33.365Z,24.40
2022-11-23T16:05:15.352Z,20.77
2022-11-23T16:07:57.743Z,21.30
2022-11-23T16:10:32.163Z,19.88
2022-11-23T16:15:38.678Z,22.40
2022-11-23T16:18:05.364Z,21.05
2022-11-23T16:20:32.824Z,21.13
2022-11-23T16:23:00.818Z,18.92
2022-11-23T16:25:33.350Z,18.90
2022-11-23T16:28:27.347Z,20.63
2022-11-23T16:30:54.319Z,19.83
2022-11-23T16:33:21.039Z,24.77
2022-11-23T16:35:49.226Z,21.73
2022-11-23T16:38:16.952Z,20.35
2022-11-23T16:40:44.653Z,28.42
2022-11-23T16:43:12.697Z,15.93
2022-11-23T16:45:41.575Z,17.73
2022-11-23T16:48:28.410Z,19.13
2022-11-23T16:50:56.776Z,16.85
2022-11-23T16:53:26.951Z,17.00
2022-11-23T16:55:55.238Z,21.60
2022-11-23T16:58:22.524Z,15.65
2022-11-23T17:00:50.170Z,22.85
2022-11-23T17:03:20.707Z,18.35
2022-11-23T17:05:48.376Z,23.02
2022-11-23T17:08:21.548Z,18.65
2022-11-23T17:10:50.913Z,23.73
2022-11-23T17:13:26.838Z,23.75
2022-11-23T17:15:54.327Z,18.23
2022-11-23T17:18:22.353Z,23.08
2022-11-23T17:20:49.134Z,20.30
2022-11-23T17:23:15.734Z,23.65
2022-11-23T17:25:42.375Z,28.85
2022-11-23T17:28:16.562Z,22.23
2022-11-23T17:30:44.040Z,24.40
2022-11-23T17:33:12.096Z,29.70
2022-11-23T17:35:39.379Z,24.50
2022-11-23T17:38:12.002Z,21.85
2022-11-23T17:40:38.549Z,21.20
2022-11-23T17:43:05.159Z,24.38
2022-11-23T17:45:31.697Z,21.60
2022-11-23T17:48:02.938Z,24.92
2022-11-23T17:50:29.938Z,22.80
2022-11-23T17:52:56.484Z,22.15
2022-11-23T17:55:23.033Z,17.73
2022-11-23T17:57:49.552Z,21.02
2022-11-23T18:00:19.093Z,24.23
2022-11-23T18:02:46.028Z,30.35
2022-11-23T18:05:17.834Z,29.00
2022-11-23T18:07:48.843Z,28.30
2022-11-23T18:10:15.880Z,25.83
2022-11-23T18:12:44.502Z,33.10
2022-11-23T18:15:11.902Z,26.17
2022-11-23T18:17:38.508Z,43.40
2022-11-23T18:20:08.089Z,30.35
2022-11-23T18:22:34.934Z,42.15
2022-11-23T18:25:01.838Z,29.40
2022-11-23T18:27:29.824Z,27.38
2022-11-23T18:29:56.467Z,29.77
2022-11-23T18:32:23.239Z,25.83
2022-11-23T18:34:49.803Z,22.40
2022-11-23T18:37:16.349Z,32.38
2022-11-23T18:39:42.863Z,26.40
2022-11-23T18:42:09.937Z,27.50
2022-11-23T18:44:36.445Z,31.10
2022-11-23T18:47:03.213Z,33.58
2022-11-23T18:49:30.129Z,31.52
2022-11-23T18:51:56.855Z,36.20
2022-11-23T18:54:23.461Z,26.70
2022-11-23T18:56:50.084Z,39.95
2022-11-23T18:59:42.087Z,32.67
2022-11-23T19:02:03.207Z,30.33
2022-11-23T19:04:32.435Z,31.60
2022-11-23T19:06:58.966Z,27.25
2022-11-23T19:09:26.002Z,27.67
2022-11-23T19:11:52.498Z,25.55
2022-11-23T19:14:19.007Z,30.30
2022-11-23T19:16:45.493Z,27.63
2022-11-23T19:19:12.746Z,26.88
2022-11-23T19:21:39.394Z,30.10
2022-11-23T19:24:07.162Z,26.60
2022-11-23T19:26:33.617Z,33.75
2022-11-23T19:29:00.201Z,31.02
2022-11-23T19:31:29.917Z,30.23
2022-11-23T19:34:01.872Z,33.67
2022-11-23T19:36:30.189Z,22.83
2022-11-23T19:38:58.221Z,36.50
2022-11-23T19:41:29.839Z,28.55
2022-11-23T19:43:58.396Z,36.47
2022-11-23T19:46:25.884Z,25.35
2022-11-23T19:48:53.718Z,27.88
2022-11-23T19:51:20.258Z,30.23
2022-11-23T19:53:49.170Z,35.67
2022-11-23T19:56:19.887Z,37.85
2022-11-23T19:58:50.294Z,33.40
2022-11-23T20:01:18.982Z,35.85
2022-11-23T20:03:48.000Z,34.55
2022-11-23T20:06:19.039Z,30.02
2022-11-23T20:08:46.102Z,34.80
2022-11-23T20:11:15.843Z,33.45
2022-11-23T20:13:43.097Z,36.88
2022-11-23T20:16:14.697Z,33.10
2022-11-23T20:18:42.907Z,36.13
2022-11-23T20:21:14.864Z,26.13
2022-11-23T20:23:42.669Z,35.33
2022-11-23T20:26:14.366Z,36.33
2022-11-23T20:28:42.180Z,28.73
2022-11-23T20:31:20.149Z,35.92
2022-11-23T20:33:47.328Z,37.67
2022-11-23T20:36:21.148Z,28.25
2022-11-23T20:38:48.877Z,37.83
2022-11-23T20:41:21.935Z,24.98
2022-11-23T20:43:49.459Z,36.55
2022-11-23T20:46:31.792Z,36.72
2022-11-23T20:49:03.224Z,28.30
2022-11-23T20:51:30.910Z,30.27
2022-11-23T20:53:57.457Z,34.45
2022-11-23T20:56:27.287Z,38.42
2022-11-23T20:58:56.364Z,35.13
2022-11-23T21:01:23.025Z,25.30
2022-11-23T21:03:52.080Z,34.10
2022-11-23T21:06:19.642Z,34.92
2022-11-23T21:08:47.590Z,35.75
2022-11-23T21:11:35.451Z,40.05
2022-11-23T21:14:06.566Z,33.55
2022-11-23T21:16:40.034Z,38.38
2022-11-23T21:19:09.177Z,28.63
2022-11-23T21:21:37.060Z,33.92
2022-11-23T21:24:04.745Z,43.85
2022-11-23T21:26:32.011Z,40.08
2022-11-23T21:28:59.630Z,38.80
2022-11-23T21:31:26.565Z,35.35
2022-11-23T21:33:54.182Z,46.58
2022-11-23T21:36:25.018Z,33.30
2022-11-23T21:38:51.873Z,44.08
2022-11-23T21:41:18.391Z,43.75
2022-11-23T21:43:51.416Z,42.17
2022-11-23T21:46:18.454Z,43.55
2022-11-23T21:48:45.095Z,29.23
2022-11-23T21:51:13.879Z,46.08
2022-11-23T21:53:41.940Z,36.63
2022-11-23T21:56:16.783Z,42.40
2022-11-23T21:58:43.876Z,35.35
2022-11-23T22:01:19.747Z,34.47
2022-11-23T22:03:51.607Z,33.70
2022-11-23T22:06:20.584Z,32.70
2022-11-23T22:08:49.674Z,32.42
2022-11-23T22:11:35.785Z,37.15
2022-11-23T22:14:05.112Z,33.67
2022-11-23T22:16:34.952Z,32.45
2022-11-23T22:19:02.683Z,34.63
2022-11-23T22:21:33.446Z,34.75
2022-11-23T22:24:01.340Z,38.15
2022-11-23T22:26:28.069Z,29.73
2022-11-23T22:28:55.896Z,25.23
2022-11-23T22:31:24.982Z,33.08
2022-11-23T22:33:54.568Z,36.97
2022-11-23T22:36:23.722Z,40.95
2022-11-23T22:39:01.584Z,30.98
2022-11-23T22:41:29.757Z,27.48
2022-11-23T22:43:56.908Z,35.90
2022-11-23T22:46:24.727Z,27.25
2022-11-23T22:48:52.160Z,27.73
2022-11-23T22:51:21.149Z,34.55
2022-11-23T22:53:48.534Z,46.67
2022-11-23T22:56:19.711Z,37.03
2022-11-23T22:58:48.030Z,36.75
2022-11-23T23:01:16.635Z,34.67
2022-11-23T23:03:43.533Z,34.95
2022-11-23T23:06:30.834Z,28.88
2022-11-23T23:08:59.061Z,31.92
2022-11-23T23:11:27.309Z,30.10
2022-11-23T23:13:54.543Z,27.42
2022-11-23T23:16:21.507Z,22.10
2022-11-23T23:18:48.504Z,29.88
2022-11-23T23:21:17.668Z,32.42
2022-11-23T23:23:51.051Z,34.47
2022-11-23T23:26:19.756Z,30.23
2022-11-23T23:28:46.615Z,28.38
2022-11-23T23:31:16.146Z,33.17
2022-11-23T23:33:43.777Z,34.75
2022-11-23T23:36:12.916Z,35.55
2022-11-23T23:38:40.294Z,44.33
2022-11-23T23:41:08.573Z,33.60
2022-11-23T23:43:35.788Z,24.38
2022-11-23T23:46:05.379Z,31.45
2022-11-23T23:48:34.762Z,33.67
2022-11-23T23:51:08.494Z,38.33
2022-11-23T23:53:36.234Z,31.00
2022-11-23T23:56:05.573Z,39.15
2022-11-23T23:58:32.181Z,29.77
